createdAt,value
2022-08-17T00:02:27.135Z,10.70
2022-08-17T00:05:31.949Z,10.27
2022-08-17T00:08:40.949Z,11.13
2022-08-17T00:12:42.807Z,11.13
2022-08-17T00:15:08.299Z,9.95
2022-08-17T00:19:01.560Z,9.77
2022-08-17T00:22:30.130Z,10.77
2022-08-17T00:25:01.312Z,11.73
2022-08-17T00:28:04.565Z,12.23
2022-08-17T00:31:08.461Z,11.02
2022-08-17T00:34:11.435Z,10.27
2022-08-17T00:37:14.378Z,14.63
2022-08-17T00:40:18.407Z,10.90
2022-08-17T00:43:44.724Z,12.23
2022-08-17T00:46:47.993Z,12.38
2022-08-17T00:49:50.946Z,13.32
2022-08-17T00:52:55.356Z,12.98
2022-08-17T00:55:59.800Z,10.77
2022-08-17T00:59:04.413Z,16.00
2022-08-17T01:02:08.499Z,11.73
2022-08-17T01:05:18.674Z,14.27
2022-08-17T01:08:24.674Z,12.82
2022-08-17T01:11:29.138Z,10.90
2022-08-17T01:14:32.148Z,11.57
2022-08-17T01:17:35.189Z,11.45
2022-08-17T01:20:47.884Z,11.75
2022-08-17T01:23:51.354Z,13.25
2022-08-17T01:26:56.739Z,12.37
2022-08-17T01:30:04.223Z,13.20
2022-08-17T01:33:27.198Z,11.43
2022-08-17T01:36:30.521Z,11.13
2022-08-17T01:39:45.580Z,15.15
2022-08-17T01:42:56.883Z,11.77
2022-08-17T01:46:03.874Z,11.47
2022-08-17T01:49:08.329Z,13.35
2022-08-17T01:52:11.566Z,12.55
2022-08-17T01:55:15.961Z,14.65
2022-08-17T01:58:19.552Z,12.03
2022-08-17T02:01:24.680Z,12.97
2022-08-17T02:04:27.774Z,12.27
2022-08-17T02:07:30.753Z,12.07
2022-08-17T02:10:34.366Z,12.07
2022-08-17T02:13:38.073Z,12.27
2022-08-17T02:16:41.179Z,10.50
2022-08-17T02:19:44.144Z,12.18
2022-08-17T02:22:47.140Z,10.98
2022-08-17T02:25:50.190Z,11.75
2022-08-17T02:28:53.657Z,16.00
2022-08-17T02:31:58.610Z,11.57
2022-08-17T02:35:01.628Z,11.75
2022-08-17T02:38:06.147Z,10.48
2022-08-17T02:41:09.253Z,11.15
2022-08-17T02:44:12.287Z,11.30
2022-08-17T02:47:15.252Z,10.33
2022-08-17T02:50:19.843Z,12.50
2022-08-17T02:53:22.793Z,11.23
2022-08-17T02:56:25.758Z,13.02
2022-08-17T02:59:29.094Z,13.70
2022-08-17T03:02:33.341Z,12.40
2022-08-17T03:05:37.177Z,13.15
2022-08-17T03:08:40.633Z,12.00
2022-08-17T03:11:43.993Z,14.68
2022-08-17T03:14:46.961Z,12.70
2022-08-17T03:17:49.973Z,14.57
2022-08-17T03:20:57.343Z,14.98
2022-08-17T03:24:00.293Z,14.32
2022-08-17T03:27:03.336Z,13.20
2022-08-17T03:30:07.427Z,12.33
2022-08-17T03:33:10.765Z,14.00
2022-08-17T03:36:13.851Z,12.77
2022-08-17T03:39:16.812Z,11.00
2022-08-17T03:42:32.527Z,12.25
2022-08-17T03:45:54.210Z,13.47
2022-08-17T03:49:15.891Z,14.50
2022-08-17T03:52:37.286Z,13.88
2022-08-17T03:55:59.113Z,12.60
2022-08-17T03:59:02.306Z,12.00
2022-08-17T04:02:09.467Z,14.93
2022-08-17T04:05:12.498Z,12.17
2022-08-17T04:08:15.444Z,12.43
2022-08-17T04:11:18.471Z,12.52
2022-08-17T04:14:21.615Z,11.00
2022-08-17T04:17:26.938Z,9.67
2022-08-17T04:20:29.966Z,11.83
2022-08-17T04:23:34.994Z,9.73
2022-08-17T04:26:52.925Z,11.50
2022-08-17T04:29:58.506Z,9.60
2022-08-17T04:33:08.957Z,10.20
2022-08-17T04:36:14.290Z,8.93
2022-08-17T04:39:17.239Z,9.80
2022-08-17T04:42:20.213Z,10.43
2022-08-17T04:45:23.198Z,9.88
2022-08-17T04:48:35.993Z,8.93
2022-08-17T04:51:49.674Z,10.17
2022-08-17T04:54:58.658Z,9.25
2022-08-17T04:58:01.649Z,9.45
2022-08-17T05:01:05.982Z,11.38
2022-08-17T05:04:32.853Z,10.90
2022-08-17T05:07:33.948Z,12.23
2022-08-17T05:10:37.880Z,12.00
2022-08-17T05:13:52.399Z,10.68
2022-08-17T05:16:55.628Z,8.82
2022-08-17T05:19:58.619Z,10.20
2022-08-17T05:23:06.823Z,11.83
2022-08-17T05:26:12.474Z,10.90
2022-08-17T05:29:34.474Z,9.65
2022-08-17T05:32:51.158Z,8.88
2022-08-17T05:35:55.325Z,10.40
2022-08-17T05:38:58.746Z,10.03
2022-08-17T05:42:02.615Z,10.55
2022-08-17T05:45:06.682Z,11.32
2022-08-17T05:48:10.313Z,10.95
2022-08-17T05:51:32.353Z,10.30
2022-08-17T05:54:48.000Z,11.77
2022-08-17T05:58:12.650Z,10.57
2022-08-17T06:01:34.273Z,11.25
2022-08-17T06:04:56.369Z,11.15
2022-08-17T06:08:05.135Z,10.23
2022-08-17T06:11:36.363Z,10.87
2022-08-17T06:15:07.991Z,10.38
2022-08-17T06:18:13.721Z,9.60
2022-08-17T06:21:19.621Z,11.05
2022-08-17T06:24:50.112Z,9.90
2022-08-17T06:28:16.302Z,13.03
2022-08-17T06:31:31.718Z,9.68
2022-08-17T06:34:34.722Z,10.98
2022-08-17T06:38:01.410Z,11.07
2022-08-17T06:41:18.749Z,11.40
2022-08-17T06:45:02.601Z,11.03
2022-08-17T06:48:29.013Z,12.55
2022-08-17T06:51:43.609Z,12.20
2022-08-17T06:54:55.864Z,10.38
2022-08-17T06:58:02.100Z,10.90
2022-08-17T07:01:10.781Z,12.07
2022-08-17T07:04:22.009Z,12.40
2022-08-17T07:07:43.481Z,10.95
2022-08-17T07:10:47.577Z,11.32
2022-08-17T07:14:20.075Z,11.37
2022-08-17T07:17:46.731Z,11.13
2022-08-17T07:20:47.718Z,11.18
2022-08-17T07:24:33.177Z,11.88
2022-08-17T07:27:45.821Z,12.40
2022-08-17T07:30:51.254Z,12.10
2022-08-17T07:34:07.071Z,10.40
2022-08-17T07:37:10.197Z,10.57
2022-08-17T07:40:23.464Z,11.70
2022-08-17T07:43:53.285Z,10.23
2022-08-17T07:47:14.966Z,10.73
2022-08-17T07:50:28.208Z,8.90
2022-08-17T07:53:32.329Z,11.75
2022-08-17T07:56:56.422Z,9.30
2022-08-17T08:00:03.078Z,8.98
2022-08-17T08:03:31.874Z,10.23
2022-08-17T08:06:37.939Z,9.37
2022-08-17T08:09:45.806Z,8.75
2022-08-17T08:12:53.725Z,8.35
2022-08-17T08:16:13.350Z,9.32
2022-08-17T08:19:20.919Z,10.37
2022-08-17T08:22:46.237Z,10.87
2022-08-17T08:26:01.325Z,9.70
2022-08-17T08:29:35.647Z,10.13
2022-08-17T08:32:48.047Z,9.98
2022-08-17T08:36:03.367Z,10.53
2022-08-17T08:39:32.628Z,10.17
2022-08-17T08:42:53.284Z,9.65
2022-08-17T08:46:21.014Z,9.50
2022-08-17T08:50:01.230Z,8.13
2022-08-17T08:53:23.591Z,10.50
2022-08-17T08:57:19.749Z,10.33
2022-08-17T09:00:24.955Z,8.73
2022-08-17T09:03:53.564Z,13.15
2022-08-17T09:07:22.404Z,9.07
2022-08-17T09:10:41.970Z,10.13
2022-08-17T09:14:21.534Z,9.63
2022-08-17T09:17:28.434Z,10.50
2022-08-17T09:21:01.442Z,10.45
2022-08-17T09:24:25.392Z,10.13
2022-08-17T09:27:33.142Z,9.80
2022-08-17T09:30:45.833Z,9.00
2022-08-17T09:33:49.413Z,10.93
2022-08-17T09:37:12.637Z,8.73
2022-08-17T09:40:26.759Z,11.07
2022-08-17T09:43:53.078Z,8.83
2022-08-17T09:47:11.306Z,8.50
2022-08-17T09:51:03.553Z,8.82
2022-08-17T09:54:21.360Z,9.90
2022-08-17T09:57:46.089Z,8.63
2022-08-17T10:01:00.763Z,9.97
2022-08-17T10:04:10.839Z,9.00
2022-08-17T10:07:25.407Z,8.30
2022-08-17T10:10:56.298Z,11.50
2022-08-17T10:14:17.486Z,9.15
2022-08-17T10:17:50.652Z,8.73
2022-08-17T10:21:31.156Z,9.47
2022-08-17T10:25:22.501Z,8.27
2022-08-17T10:28:30.444Z,10.45
2022-08-17T10:31:35.985Z,8.48
2022-08-17T10:35:00.993Z,8.37
2022-08-17T10:38:24.560Z,7.53
2022-08-17T10:41:30.721Z,9.43
2022-08-17T10:44:47.676Z,8.65
2022-08-17T10:48:06.369Z,8.70
2022-08-17T10:51:34.606Z,8.17
2022-08-17T10:54:46.677Z,8.17
2022-08-17T10:57:50.251Z,9.07
2022-08-17T11:00:53.603Z,8.07
2022-08-17T11:03:57.669Z,8.50
2022-08-17T11:07:31.969Z,8.00
2022-08-17T11:10:46.433Z,10.00
2022-08-17T11:14:14.211Z,10.35
2022-08-17T11:17:20.161Z,8.88
2022-08-17T11:20:44.744Z,9.45
2022-08-17T11:24:16.595Z,9.47
2022-08-17T11:27:29.038Z,8.90
2022-08-17T11:30:48.934Z,8.02
2022-08-17T11:34:06.629Z,8.63
2022-08-17T11:37:18.785Z,7.38
2022-08-17T11:40:48.811Z,7.60
2022-08-17T11:44:08.321Z,9.23
2022-08-17T11:47:37.701Z,7.75
2022-08-17T11:51:17.890Z,8.00
2022-08-17T11:54:41.207Z,7.35
2022-08-17T11:57:46.034Z,7.93
2022-08-17T12:01:02.087Z,7.83
2022-08-17T12:04:48.351Z,7.35
2022-08-17T12:08:11.641Z,7.28
2022-08-17T12:11:56.276Z,8.25
2022-08-17T12:15:10.546Z,8.07
2022-08-17T12:18:32.401Z,8.13
2022-08-17T12:21:55.071Z,6.78
2022-08-17T12:25:04.936Z,7.00
2022-08-17T12:28:25.122Z,7.93
2022-08-17T12:31:50.814Z,6.83
2022-08-17T12:34:53.936Z,8.60
2022-08-17T12:38:00.132Z,7.15
2022-08-17T12:41:22.763Z,7.22
2022-08-17T12:44:29.868Z,8.48
2022-08-17T12:47:35.110Z,7.85
2022-08-17T12:50:41.683Z,7.95
2022-08-17T12:53:53.172Z,7.63
2022-08-17T12:57:15.890Z,7.65
2022-08-17T13:00:33.942Z,7.47
2022-08-17T13:03:40.764Z,8.17
2022-08-17T13:06:49.814Z,9.38
2022-08-17T13:09:55.744Z,6.57
2022-08-17T13:13:05.281Z,6.93
2022-08-17T13:16:17.315Z,6.68
2022-08-17T13:19:40.475Z,7.25
2022-08-17T13:22:45.085Z,7.13
2022-08-17T13:25:58.867Z,6.70
2022-08-17T13:29:04.660Z,6.68
2022-08-17T13:32:14.029Z,6.50
2022-08-17T13:35:39.547Z,6.97
2022-08-17T13:38:49.581Z,7.20
2022-08-17T13:41:53.890Z,6.78
2022-08-17T13:44:57.171Z,6.53
2022-08-17T13:48:11.943Z,6.45
2022-08-17T13:51:24.901Z,8.80
2022-08-17T13:54:32.654Z,6.80
2022-08-17T13:57:35.804Z,7.25
2022-08-17T14:00:39.505Z,9.10
2022-08-17T14:03:42.482Z,8.00
2022-08-17T14:06:54.029Z,7.47
2022-08-17T14:10:09.869Z,7.47
2022-08-17T14:13:15.197Z,9.23
2022-08-17T14:16:18.225Z,6.68
2022-08-17T14:19:22.048Z,7.53
2022-08-17T14:22:32.274Z,7.87
2022-08-17T14:25:35.322Z,6.60
2022-08-17T14:28:38.852Z,9.20
2022-08-17T14:31:57.852Z,7.05
2022-08-17T14:35:00.994Z,7.90
2022-08-17T14:38:04.008Z,7.07
2022-08-17T14:41:07.073Z,7.07
2022-08-17T14:44:12.434Z,7.85
2022-08-17T14:47:15.964Z,6.50
2022-08-17T14:50:19.646Z,7.63
2022-08-17T14:53:22.992Z,7.50
2022-08-17T14:56:26.471Z,7.07
2022-08-17T14:59:29.467Z,6.80
2022-08-17T15:02:33.313Z,6.72
2022-08-17T15:05:36.975Z,7.90
2022-08-17T15:08:39.965Z,6.47
2022-08-17T15:11:43.018Z,7.63
2022-08-17T15:14:46.084Z,8.88
2022-08-17T15:17:51.169Z,6.75
2022-08-17T15:20:54.186Z,6.38
2022-08-17T15:23:57.292Z,7.30
2022-08-17T15:27:00.282Z,7.10
2022-08-17T15:30:05.191Z,7.35
2022-08-17T15:33:14.678Z,6.60
2022-08-17T15:36:19.219Z,6.95
2022-08-17T15:39:22.196Z,9.07
2022-08-17T15:42:27.648Z,6.10
2022-08-17T15:45:33.595Z,7.40
2022-08-17T15:48:42.665Z,6.70
2022-08-17T15:51:45.686Z,7.85
2022-08-17T15:54:58.169Z,6.20
2022-08-17T15:58:01.174Z,7.07
2022-08-17T16:01:16.617Z,7.18
2022-08-17T16:04:30.121Z,7.95
2022-08-17T16:07:34.141Z,6.90
2022-08-17T16:10:37.243Z,7.40
2022-08-17T16:13:47.374Z,6.97
2022-08-17T16:16:59.178Z,9.15
2022-08-17T16:20:02.197Z,6.32
2022-08-17T16:23:05.310Z,7.38
2022-08-17T16:26:08.270Z,7.00
2022-08-17T16:29:11.280Z,6.63
2022-08-17T16:32:15.858Z,6.47
2022-08-17T16:35:20.455Z,7.22
2022-08-17T16:38:23.441Z,6.85
2022-08-17T16:41:45.264Z,6.93
2022-08-17T16:44:48.926Z,6.97
2022-08-17T16:47:52.025Z,7.80
2022-08-17T16:51:02.859Z,7.85
2022-08-17T16:54:07.183Z,6.68
2022-08-17T16:57:11.372Z,6.20
2022-08-17T17:00:15.269Z,6.67
2022-08-17T17:03:20.651Z,7.03
2022-08-17T17:06:51.188Z,7.00
2022-08-17T17:09:55.482Z,7.43
2022-08-17T17:13:03.236Z,6.33
2022-08-17T17:16:30.061Z,6.90
2022-08-17T17:19:51.779Z,7.72
2022-08-17T17:23:25.666Z,8.13
2022-08-17T17:26:56.941Z,6.10
2022-08-17T17:30:15.391Z,7.83
2022-08-17T17:33:19.701Z,7.40
2022-08-17T17:36:52.642Z,8.57
2022-08-17T17:39:57.326Z,7.63
2022-08-17T17:43:14.555Z,7.40
2022-08-17T17:46:27.009Z,7.33
2022-08-17T17:49:37.123Z,7.20
2022-08-17T17:52:47.635Z,7.03
2022-08-17T17:55:59.899Z,8.15
2022-08-17T17:59:27.818Z,8.75
2022-08-17T18:02:54.985Z,6.80
2022-08-17T18:06:21.438Z,6.43
2022-08-17T18:09:44.185Z,7.18
2022-08-17T18:13:00.369Z,7.57
2022-08-17T18:16:03.551Z,7.78
2022-08-17T18:19:07.189Z,8.63
2022-08-17T18:22:18.813Z,8.70
2022-08-17T18:25:44.678Z,9.30
2022-08-17T18:28:47.644Z,11.32
2022-08-17T18:32:12.526Z,7.38
2022-08-17T18:35:18.261Z,8.23
2022-08-17T18:38:37.639Z,7.17
2022-08-17T18:41:48.223Z,9.55
2022-08-17T18:44:54.874Z,7.72
2022-08-17T18:47:58.365Z,9.20
2022-08-17T18:51:20.200Z,9.27
2022-08-17T18:54:29.227Z,11.40
2022-08-17T18:57:34.879Z,7.80
2022-08-17T19:00:40.449Z,7.95
2022-08-17T19:03:43.420Z,7.90
2022-08-17T19:06:46.650Z,9.60
2022-08-17T19:09:58.818Z,7.40
2022-08-17T19:13:12.779Z,9.85
2022-08-17T19:16:47.028Z,8.85
2022-08-17T19:20:05.221Z,8.05
2022-08-17T19:23:14.228Z,7.87
2022-08-17T19:26:54.601Z,8.63
2022-08-17T19:29:57.493Z,9.13
2022-08-17T19:33:01.002Z,7.72
2022-08-17T19:36:06.949Z,7.68
2022-08-17T19:39:38.347Z,9.37
2022-08-17T19:42:58.734Z,8.83
2022-08-17T19:46:26.625Z,8.75
2022-08-17T19:49:33.480Z,8.55
2022-08-17T19:52:58.814Z,8.52
2022-08-17T19:56:39.254Z,9.47
2022-08-17T19:59:51.553Z,10.93
2022-08-17T20:02:56.299Z,7.68
2022-08-17T20:06:15.523Z,7.05
2022-08-17T20:09:45.092Z,9.35
2022-08-17T20:12:48.118Z,8.20
2022-08-17T20:15:51.243Z,9.23
2022-08-17T20:19:01.181Z,9.00
2022-08-17T20:22:10.990Z,8.68
2022-08-17T20:25:18.140Z,23.33
2022-08-17T20:28:35.254Z,13.37
2022-08-17T20:31:42.524Z,11.70
2022-08-17T20:34:46.539Z,12.05
2022-08-17T20:38:13.231Z,12.20
2022-08-17T20:41:35.093Z,11.18
2022-08-17T20:44:40.121Z,10.43
2022-08-17T20:48:01.171Z,12.73
2022-08-17T20:51:12.865Z,9.88
2022-08-17T20:54:18.870Z,9.68
2022-08-17T20:57:48.791Z,10.70
2022-08-17T21:00:57.482Z,9.63
2022-08-17T21:04:00.525Z,10.17
2022-08-17T21:07:29.248Z,8.57
2022-08-17T21:10:36.408Z,9.90
2022-08-17T21:13:49.068Z,9.73
2022-08-17T21:17:17.581Z,10.13
2022-08-17T21:20:32.832Z,9.67
2022-08-17T21:23:44.637Z,11.43
2022-08-17T21:27:00.210Z,8.95
2022-08-17T21:30:06.505Z,10.40
2022-08-17T21:33:20.318Z,9.60
2022-08-17T21:36:25.989Z,10.73
2022-08-17T21:39:33.749Z,9.32
2022-08-17T21:42:38.521Z,11.07
2022-08-17T21:45:42.913Z,11.25
2022-08-17T21:48:48.322Z,9.07
2022-08-17T21:51:54.247Z,9.17
2022-08-17T21:54:58.703Z,10.15
2022-08-17T21:58:13.719Z,11.05
2022-08-17T22:01:30.110Z,9.45
2022-08-17T22:04:40.786Z,11.33
2022-08-17T22:07:50.563Z,10.53
2022-08-17T22:11:00.772Z,12.23
2022-08-17T22:14:05.863Z,10.15
2022-08-17T22:17:28.580Z,9.40
2022-08-17T22:20:31.542Z,10.53
2022-08-17T22:23:58.489Z,8.43
2022-08-17T22:27:11.589Z,9.82
2022-08-17T22:30:27.428Z,8.48
2022-08-17T22:33:37.628Z,9.80
2022-08-17T22:36:41.827Z,7.87
2022-08-17T22:39:45.323Z,9.60
2022-08-17T22:42:48.329Z,9.10
2022-08-17T22:45:53.307Z,10.02
2022-08-17T22:48:59.325Z,9.40
2022-08-17T22:52:15.042Z,9.13
2022-08-17T22:55:36.757Z,10.17
2022-08-17T22:59:11.725Z,9.75
2022-08-17T23:02:19.639Z,9.63
2022-08-17T23:05:24.051Z,11.40
2022-08-17T23:08:27.079Z,11.80
2022-08-17T23:11:42.952Z,11.17
2022-08-17T23:15:00.721Z,11.27
2022-08-17T23:18:04.765Z,10.35
2022-08-17T23:21:07.799Z,10.68
2022-08-17T23:24:11.897Z,10.20
2022-08-17T23:27:14.909Z,8.97
2022-08-17T23:30:18.001Z,9.27
2022-08-17T23:33:30.034Z,8.63
2022-08-17T23:36:33.010Z,13.45
2022-08-17T23:39:36.284Z,9.27
2022-08-17T23:42:46.176Z,10.53
2022-08-17T23:45:49.449Z,10.63
2022-08-17T23:48:53.532Z,11.73
2022-08-17T23:51:56.755Z,11.57
2022-08-17T23:54:59.708Z,13.47
2022-08-17T23:58:06.146Z,11.03
